createdAt,value
2023-01-31T00:01:55.001Z,8.85
2023-01-31T00:04:27.192Z,8.95
2023-01-31T00:06:59.195Z,8.18
2023-01-31T00:09:31.169Z,8.85
2023-01-31T00:12:03.058Z,8.13
2023-01-31T00:14:34.982Z,8.32
2023-01-31T00:17:06.916Z,9.63
2023-01-31T00:19:39.275Z,7.90
2023-01-31T00:22:11.495Z,8.13
2023-01-31T00:24:43.360Z,8.95
2023-01-31T00:27:15.224Z,8.70
2023-01-31T00:29:47.108Z,8.30
2023-01-31T00:32:19.286Z,8.63
2023-01-31T00:34:51.213Z,8.25
2023-01-31T00:37:23.174Z,8.00
2023-01-31T00:39:55.095Z,8.02
2023-01-31T00:42:27.026Z,7.60
2023-01-31T00:44:58.985Z,7.95
2023-01-31T00:47:30.929Z,8.68
2023-01-31T00:50:03.508Z,8.38
2023-01-31T00:52:36.115Z,8.25
2023-01-31T00:55:08.785Z,7.82
2023-01-31T00:57:40.878Z,7.05
2023-01-31T01:00:13.368Z,7.75
2023-01-31T01:02:45.377Z,8.38
2023-01-31T01:05:17.421Z,7.32
2023-01-31T01:07:49.308Z,7.78
2023-01-31T01:10:21.323Z,7.35
2023-01-31T01:12:53.379Z,6.22
2023-01-31T01:15:25.331Z,7.30
2023-01-31T01:17:57.256Z,7.72
2023-01-31T01:20:29.329Z,7.47
2023-01-31T01:23:01.328Z,6.72
2023-01-31T01:25:45.155Z,6.68
2023-01-31T01:28:17.186Z,6.43
2023-01-31T01:30:49.147Z,6.25
2023-01-31T01:33:21.076Z,6.22
2023-01-31T01:35:53.083Z,6.22
2023-01-31T01:38:25.000Z,6.90
2023-01-31T01:40:57.291Z,6.18
2023-01-31T01:43:52.484Z,6.50
2023-01-31T01:46:44.357Z,6.70
2023-01-31T01:49:29.282Z,6.10
2023-01-31T01:52:05.202Z,7.10
2023-01-31T01:54:47.363Z,5.68
2023-01-31T01:57:24.813Z,6.70
2023-01-31T02:00:15.294Z,7.05
2023-01-31T02:02:49.764Z,6.47
2023-01-31T02:05:29.739Z,6.47
2023-01-31T02:08:03.135Z,6.13
2023-01-31T02:10:44.318Z,7.07
2023-01-31T02:13:17.240Z,6.65
2023-01-31T02:15:49.365Z,7.00
2023-01-31T02:18:24.509Z,6.72
2023-01-31T02:21:24.272Z,7.07
2023-01-31T02:24:13.696Z,6.65
2023-01-31T02:27:10.581Z,6.63
2023-01-31T02:30:07.214Z,6.57
2023-01-31T02:32:55.702Z,7.35
2023-01-31T02:35:54.183Z,7.10
2023-01-31T02:39:02.706Z,6.50
2023-01-31T02:41:56.848Z,7.05
2023-01-31T02:44:54.976Z,6.10
2023-01-31T02:47:48.392Z,6.07
2023-01-31T02:50:32.396Z,6.90
2023-01-31T02:53:30.929Z,6.70
2023-01-31T02:56:28.129Z,6.15
2023-01-31T02:59:05.320Z,6.20
2023-01-31T03:01:41.947Z,6.97
2023-01-31T03:04:14.899Z,6.65
2023-01-31T03:07:05.686Z,5.70
2023-01-31T03:09:42.552Z,6.47
2023-01-31T03:12:31.036Z,6.97
2023-01-31T03:15:18.443Z,6.55
2023-01-31T03:18:01.020Z,6.50
2023-01-31T03:20:44.011Z,6.18
2023-01-31T03:23:20.463Z,6.00
2023-01-31T03:25:52.916Z,6.38
2023-01-31T03:28:32.679Z,6.18
2023-01-31T03:31:04.821Z,5.95
2023-01-31T03:33:41.087Z,5.82
2023-01-31T03:36:24.914Z,6.10
2023-01-31T03:38:59.601Z,5.95
2023-01-31T03:41:54.511Z,5.53
2023-01-31T03:44:45.141Z,5.57
2023-01-31T03:47:23.735Z,7.03
2023-01-31T03:49:59.518Z,5.28
2023-01-31T03:52:39.207Z,5.75
2023-01-31T03:55:17.160Z,5.25
2023-01-31T03:57:55.165Z,5.72
2023-01-31T04:00:28.119Z,5.78
2023-01-31T04:03:10.899Z,6.47
2023-01-31T04:05:43.601Z,5.90
2023-01-31T04:08:16.587Z,5.57
2023-01-31T04:10:50.167Z,5.97
2023-01-31T04:13:22.422Z,5.03
2023-01-31T04:15:54.467Z,5.07
2023-01-31T04:18:26.480Z,5.10
2023-01-31T04:20:58.481Z,5.40
2023-01-31T04:23:30.437Z,6.10
2023-01-31T04:26:02.613Z,5.80
2023-01-31T04:28:35.188Z,5.10
2023-01-31T04:31:07.473Z,4.57
2023-01-31T04:33:39.441Z,5.72
2023-01-31T04:36:11.419Z,5.03
2023-01-31T04:38:43.455Z,6.28
2023-01-31T04:41:15.407Z,5.35
2023-01-31T04:43:47.413Z,5.90
2023-01-31T04:46:19.691Z,5.28
2023-01-31T04:48:51.626Z,5.57
2023-01-31T04:51:23.714Z,5.97
2023-01-31T04:53:55.722Z,5.95
2023-01-31T04:56:27.764Z,6.32
2023-01-31T04:58:59.743Z,6.38
2023-01-31T05:01:31.899Z,5.95
2023-01-31T05:04:04.053Z,7.22
2023-01-31T05:06:36.323Z,9.43
2023-01-31T05:09:08.412Z,14.32
2023-01-31T05:11:40.538Z,12.48
2023-01-31T05:14:14.067Z,7.47
2023-01-31T05:16:47.609Z,5.28
2023-01-31T05:19:19.547Z,6.10
2023-01-31T05:22:00.365Z,5.53
2023-01-31T05:27:05.471Z,5.95
2023-01-31T05:29:37.816Z,5.75
2023-01-31T05:32:09.859Z,5.70
2023-01-31T05:34:41.847Z,4.88
2023-01-31T05:37:13.940Z,4.65
2023-01-31T05:39:45.862Z,5.53
2023-01-31T05:42:17.876Z,5.55
2023-01-31T05:44:50.231Z,5.20
2023-01-31T05:47:23.884Z,4.68
2023-01-31T05:49:55.859Z,5.28
2023-01-31T05:52:27.997Z,4.95
2023-01-31T05:55:00.416Z,5.47
2023-01-31T05:57:32.407Z,4.75
2023-01-31T06:00:04.880Z,4.40
2023-01-31T06:02:36.874Z,5.05
2023-01-31T06:05:10.017Z,4.72
2023-01-31T06:07:42.467Z,6.68
2023-01-31T06:10:15.465Z,5.32
2023-01-31T06:12:47.439Z,5.05
2023-01-31T06:15:19.620Z,5.05
2023-01-31T06:17:51.798Z,5.18
2023-01-31T06:20:27.092Z,5.05
2023-01-31T06:23:01.361Z,4.72
2023-01-31T06:25:33.232Z,4.30
2023-01-31T06:28:06.195Z,5.28
2023-01-31T06:30:38.162Z,5.13
2023-01-31T06:33:10.570Z,4.85
2023-01-31T06:35:42.676Z,4.28
2023-01-31T06:38:16.611Z,4.97
2023-01-31T06:40:48.573Z,4.78
2023-01-31T06:43:20.566Z,3.80
2023-01-31T06:45:52.737Z,5.63
2023-01-31T06:48:24.787Z,4.60
2023-01-31T06:50:57.188Z,4.95
2023-01-31T06:53:29.130Z,5.35
2023-01-31T06:56:01.107Z,5.22
2023-01-31T06:58:34.057Z,5.72
2023-01-31T07:01:07.256Z,7.80
2023-01-31T07:03:39.660Z,6.38
2023-01-31T07:06:12.390Z,6.03
2023-01-31T07:08:44.361Z,7.32
2023-01-31T07:11:16.362Z,9.90
2023-01-31T07:13:48.300Z,7.43
2023-01-31T07:16:20.272Z,6.95
2023-01-31T07:18:53.780Z,7.05
2023-01-31T07:21:26.691Z,11.05
2023-01-31T07:23:58.639Z,13.77
2023-01-31T07:26:31.186Z,9.88
2023-01-31T07:29:03.394Z,9.07
2023-01-31T07:31:35.491Z,6.43
2023-01-31T07:34:07.477Z,6.07
2023-01-31T07:36:39.529Z,5.55
2023-01-31T07:39:11.701Z,5.63
2023-01-31T07:41:44.069Z,10.18
2023-01-31T07:44:16.510Z,6.53
2023-01-31T07:46:48.855Z,5.07
2023-01-31T07:49:20.981Z,4.78
2023-01-31T07:51:53.028Z,4.97
2023-01-31T07:54:25.055Z,5.15
2023-01-31T07:56:56.989Z,4.95
2023-01-31T07:59:29.607Z,5.13
2023-01-31T08:02:20.290Z,5.95
2023-01-31T08:04:52.399Z,5.57
2023-01-31T08:07:26.881Z,5.72
2023-01-31T08:09:58.995Z,8.93
2023-01-31T08:12:30.944Z,4.05
2023-01-31T08:15:02.872Z,7.72
2023-01-31T08:17:34.813Z,4.35
2023-01-31T08:20:07.325Z,4.32
2023-01-31T08:22:39.276Z,4.82
2023-01-31T08:25:11.461Z,4.38
2023-01-31T08:27:44.102Z,4.22
2023-01-31T08:30:16.360Z,4.03
2023-01-31T08:32:48.339Z,5.03
2023-01-31T08:35:20.582Z,4.65
2023-01-31T08:37:55.313Z,4.03
2023-01-31T08:40:31.451Z,3.40
2023-01-31T08:43:03.525Z,4.18
2023-01-31T08:45:37.172Z,4.15
2023-01-31T08:48:09.107Z,4.13
2023-01-31T08:50:41.638Z,5.18
2023-01-31T08:53:13.742Z,3.35
2023-01-31T08:55:45.587Z,4.35
2023-01-31T08:58:17.669Z,4.32
2023-01-31T09:00:49.642Z,4.03
2023-01-31T09:03:21.664Z,4.70
2023-01-31T09:05:53.660Z,3.97
2023-01-31T09:08:25.653Z,4.35
2023-01-31T09:11:00.619Z,4.15
2023-01-31T09:13:34.386Z,4.90
2023-01-31T09:16:09.446Z,4.47
2023-01-31T09:18:42.575Z,4.15
2023-01-31T09:21:17.530Z,4.85
2023-01-31T09:23:54.510Z,4.18
2023-01-31T09:26:27.211Z,4.03
2023-01-31T09:29:01.591Z,3.72
2023-01-31T09:31:33.730Z,4.53
2023-01-31T09:34:05.705Z,4.00
2023-01-31T09:36:37.646Z,3.72
2023-01-31T09:39:12.196Z,4.70
2023-01-31T09:41:52.142Z,4.35
2023-01-31T09:44:33.118Z,3.60
2023-01-31T09:47:30.999Z,4.90
2023-01-31T09:50:13.125Z,4.70
2023-01-31T09:52:45.591Z,4.60
2023-01-31T09:55:20.025Z,4.53
2023-01-31T09:58:47.709Z,5.85
2023-01-31T10:01:28.283Z,4.70
2023-01-31T10:04:23.944Z,5.15
2023-01-31T10:07:03.975Z,4.50
2023-01-31T10:09:41.197Z,4.75
2023-01-31T10:12:37.420Z,4.72
2023-01-31T10:15:46.797Z,5.20
2023-01-31T10:18:32.910Z,5.55
2023-01-31T10:21:09.893Z,4.18
2023-01-31T10:23:53.244Z,5.72
2023-01-31T10:26:32.409Z,7.10
2023-01-31T10:29:14.168Z,6.13
2023-01-31T10:31:59.901Z,5.97
2023-01-31T10:34:47.923Z,6.95
2023-01-31T10:37:40.793Z,6.35
2023-01-31T10:40:20.801Z,5.13
2023-01-31T10:43:00.848Z,5.28
2023-01-31T10:45:34.104Z,4.97
2023-01-31T10:48:27.301Z,5.22
2023-01-31T10:51:05.352Z,6.60
2023-01-31T10:54:05.344Z,4.75
2023-01-31T10:56:58.046Z,6.10
2023-01-31T10:59:50.709Z,5.72
2023-01-31T11:02:30.348Z,7.30
2023-01-31T11:05:02.835Z,6.00
2023-01-31T11:07:34.936Z,6.10
2023-01-31T11:10:25.161Z,4.80
2023-01-31T11:13:04.722Z,5.40
2023-01-31T11:15:39.979Z,4.93
2023-01-31T11:18:26.448Z,4.07
2023-01-31T11:21:01.375Z,4.72
2023-01-31T11:23:35.777Z,3.70
2023-01-31T11:26:08.255Z,5.00
2023-01-31T11:28:41.804Z,4.47
2023-01-31T11:31:26.389Z,4.45
2023-01-31T11:34:04.330Z,3.58
2023-01-31T11:36:44.076Z,4.40
2023-01-31T11:39:34.245Z,6.45
2023-01-31T11:42:11.815Z,6.80
2023-01-31T11:45:01.951Z,3.70
2023-01-31T11:47:46.057Z,3.63
2023-01-31T11:50:33.385Z,3.58
2023-01-31T11:53:26.425Z,4.15
2023-01-31T11:56:12.711Z,6.20
2023-01-31T11:58:48.013Z,4.90
2023-01-31T12:01:23.192Z,5.30
2023-01-31T12:04:04.221Z,3.55
2023-01-31T12:06:38.967Z,3.78
2023-01-31T12:09:26.248Z,4.60
2023-01-31T12:12:01.424Z,6.35
2023-01-31T12:14:40.210Z,5.75
2023-01-31T12:17:18.782Z,9.07
2023-01-31T12:20:28.982Z,6.35
2023-01-31T12:23:01.210Z,7.30
2023-01-31T12:25:42.021Z,9.68
2023-01-31T12:31:25.028Z,8.70
2023-01-31T12:34:23.001Z,5.75
2023-01-31T12:37:29.806Z,6.80
2023-01-31T12:40:30.527Z,10.27
2023-01-31T12:46:04.403Z,6.10
2023-01-31T12:48:55.152Z,4.40
2023-01-31T12:51:48.408Z,5.30
2023-01-31T12:54:29.569Z,5.03
2023-01-31T12:57:22.672Z,4.85
2023-01-31T13:00:27.826Z,4.68
2023-01-31T13:02:59.811Z,4.93
2023-01-31T13:05:41.185Z,3.92
2023-01-31T13:08:23.745Z,4.25
2023-01-31T13:11:04.852Z,3.05
2023-01-31T13:13:46.349Z,4.85
2023-01-31T13:16:36.052Z,5.70
2023-01-31T13:19:16.508Z,4.88
2023-01-31T13:21:52.678Z,5.63
2023-01-31T13:24:29.978Z,3.75
2023-01-31T13:27:10.844Z,4.60
2023-01-31T13:32:28.135Z,6.13
2023-01-31T13:35:32.924Z,4.45
2023-01-31T13:38:13.688Z,4.18
2023-01-31T13:40:53.239Z,3.65
2023-01-31T13:43:25.544Z,7.15
2023-01-31T13:46:05.705Z,5.28
2023-01-31T13:48:47.290Z,5.13
2023-01-31T13:51:29.921Z,8.75
2023-01-31T13:54:17.119Z,4.97
2023-01-31T13:56:55.931Z,3.30
2023-01-31T13:59:33.478Z,7.18
2023-01-31T14:02:17.211Z,4.82
2023-01-31T14:04:49.133Z,4.70
2023-01-31T14:07:23.163Z,3.53
2023-01-31T14:09:57.959Z,4.10
2023-01-31T14:12:35.976Z,5.28
2023-01-31T14:15:47.437Z,5.35
2023-01-31T14:18:41.230Z,5.85
2023-01-31T14:21:31.555Z,5.78
2023-01-31T14:24:06.546Z,5.78
2023-01-31T14:26:44.339Z,5.53
2023-01-31T14:29:25.477Z,5.20
2023-01-31T14:31:57.838Z,6.05
2023-01-31T14:34:32.328Z,5.07
2023-01-31T14:37:42.898Z,6.82
2023-01-31T14:40:38.954Z,6.00
2023-01-31T14:43:17.960Z,7.95
2023-01-31T14:45:59.639Z,7.25
2023-01-31T14:48:56.256Z,6.95
2023-01-31T14:51:28.209Z,7.32
2023-01-31T14:54:37.190Z,7.35
2023-01-31T14:57:15.133Z,7.57
2023-01-31T14:59:59.186Z,7.70
2023-01-31T15:02:31.343Z,8.27
2023-01-31T15:05:06.750Z,7.43
2023-01-31T15:08:01.289Z,10.07
2023-01-31T15:11:02.572Z,11.02
2023-01-31T15:13:42.488Z,7.68
2023-01-31T15:16:34.525Z,6.70
2023-01-31T15:19:16.416Z,10.75
2023-01-31T15:21:55.734Z,10.00
2023-01-31T15:24:39.835Z,16.10
2023-01-31T15:27:30.125Z,14.68
2023-01-31T15:30:09.538Z,10.43
2023-01-31T15:32:50.334Z,11.00
2023-01-31T15:38:10.642Z,19.45
2023-01-31T15:40:42.780Z,21.83
2023-01-31T15:43:25.209Z,28.60
2023-01-31T15:45:57.212Z,34.30
2023-01-31T15:48:29.308Z,28.33
2023-01-31T15:51:01.617Z,30.48
2023-01-31T15:53:33.499Z,37.05
2023-01-31T15:56:09.577Z,37.33
2023-01-31T15:58:47.570Z,40.30
2023-01-31T16:01:19.749Z,37.80
2023-01-31T16:03:57.208Z,30.55
2023-01-31T16:06:33.020Z,23.63
2023-01-31T16:09:07.196Z,27.23
2023-01-31T16:11:39.542Z,23.58
2023-01-31T16:14:12.233Z,34.38
2023-01-31T16:16:49.440Z,53.65
2023-01-31T16:19:31.581Z,76.93
2023-01-31T16:22:04.503Z,60.97
2023-01-31T16:24:36.428Z,61.25
2023-01-31T16:27:18.141Z,33.03
2023-01-31T16:29:53.360Z,44.92
2023-01-31T16:32:28.826Z,24.92
2023-01-31T16:35:21.718Z,21.52
2023-01-31T16:38:08.176Z,17.88
2023-01-31T16:40:48.679Z,13.55
2023-01-31T16:43:30.212Z,11.48
2023-01-31T16:46:09.205Z,12.30
2023-01-31T16:48:42.367Z,11.35
2023-01-31T16:51:25.904Z,11.40
2023-01-31T16:54:31.313Z,11.65
2023-01-31T16:57:03.301Z,11.40
2023-01-31T16:59:35.365Z,11.93
2023-01-31T17:02:27.065Z,11.63
2023-01-31T17:05:15.815Z,12.23
2023-01-31T17:07:49.297Z,11.05
2023-01-31T17:10:29.454Z,13.82
2023-01-31T17:13:03.721Z,12.75
2023-01-31T17:15:36.312Z,13.20
2023-01-31T17:18:11.404Z,18.40
2023-01-31T17:20:51.359Z,19.92
2023-01-31T17:23:23.306Z,22.53
2023-01-31T17:25:55.281Z,18.38
2023-01-31T17:28:27.271Z,13.60
2023-01-31T17:30:59.311Z,14.52
2023-01-31T17:33:31.303Z,13.75
2023-01-31T17:36:03.309Z,15.57
2023-01-31T17:38:35.173Z,25.63
2023-01-31T17:41:12.372Z,29.88
2023-01-31T17:43:44.793Z,23.25
2023-01-31T17:46:18.436Z,17.17
2023-01-31T17:48:50.428Z,16.92
2023-01-31T17:51:22.350Z,16.20
2023-01-31T17:53:54.294Z,14.13
2023-01-31T17:56:26.256Z,18.63
2023-01-31T17:58:58.387Z,13.77
2023-01-31T18:01:31.860Z,13.60
2023-01-31T18:04:04.614Z,11.85
2023-01-31T18:06:37.267Z,14.77
2023-01-31T18:09:10.583Z,15.25
2023-01-31T18:11:44.109Z,12.07
2023-01-31T18:14:16.296Z,12.70
2023-01-31T18:16:51.355Z,11.57
2023-01-31T18:19:23.334Z,14.65
2023-01-31T18:21:55.811Z,12.13
2023-01-31T18:24:27.848Z,10.60
2023-01-31T18:26:59.824Z,12.13
2023-01-31T18:29:31.836Z,14.50
2023-01-31T18:32:06.652Z,13.63
2023-01-31T18:34:38.953Z,12.48
2023-01-31T18:37:17.106Z,13.70
2023-01-31T18:39:50.420Z,12.35
2023-01-31T18:42:22.723Z,12.23
2023-01-31T18:44:54.651Z,12.90
2023-01-31T18:47:26.484Z,10.45
2023-01-31T18:49:58.972Z,12.20
2023-01-31T18:52:31.151Z,11.18
2023-01-31T18:55:03.159Z,12.88
2023-01-31T18:57:35.172Z,10.73
2023-01-31T19:00:07.723Z,11.13
2023-01-31T19:02:39.856Z,13.23
2023-01-31T19:05:11.801Z,13.55
2023-01-31T19:07:43.961Z,13.25
2023-01-31T19:10:16.439Z,14.07
2023-01-31T19:12:48.627Z,14.23
2023-01-31T19:15:21.000Z,12.90
2023-01-31T19:17:53.127Z,13.05
2023-01-31T19:20:25.402Z,13.60
2023-01-31T19:22:59.591Z,13.52
2023-01-31T19:25:31.554Z,11.95
2023-01-31T19:28:03.682Z,12.60
2023-01-31T19:30:35.787Z,13.57
2023-01-31T19:33:08.039Z,15.10
2023-01-31T19:35:39.896Z,15.85
2023-01-31T19:38:12.724Z,28.30
2023-01-31T19:40:44.733Z,16.13
2023-01-31T19:43:16.606Z,14.65
2023-01-31T19:45:48.642Z,13.55
2023-01-31T19:48:20.644Z,19.45
2023-01-31T19:50:52.662Z,17.92
2023-01-31T19:53:25.651Z,13.75
2023-01-31T19:55:57.569Z,12.10
2023-01-31T19:58:32.613Z,12.40
2023-01-31T20:01:07.810Z,12.15
2023-01-31T20:03:40.416Z,12.05
2023-01-31T20:06:15.560Z,13.43
2023-01-31T20:09:01.221Z,13.15
2023-01-31T20:11:35.234Z,12.98
2023-01-31T20:14:07.232Z,12.90
2023-01-31T20:16:39.198Z,15.02
2023-01-31T20:19:11.171Z,15.13
2023-01-31T20:21:43.221Z,15.10
2023-01-31T20:24:15.398Z,13.77
2023-01-31T20:26:47.501Z,14.20
2023-01-31T20:29:19.471Z,14.68
2023-01-31T20:31:51.550Z,14.48
2023-01-31T20:34:23.713Z,13.00
2023-01-31T20:36:55.622Z,13.90
2023-01-31T20:39:27.595Z,14.40
2023-01-31T20:41:59.690Z,14.02
2023-01-31T20:44:31.589Z,18.77
2023-01-31T20:47:03.856Z,11.70
2023-01-31T20:49:35.849Z,13.35
2023-01-31T20:52:07.715Z,12.07
2023-01-31T20:54:39.562Z,13.80
2023-01-31T20:57:11.571Z,12.25
2023-01-31T20:59:43.534Z,12.30
2023-01-31T21:02:15.527Z,12.60
2023-01-31T21:04:47.402Z,13.57
2023-01-31T21:07:19.326Z,12.52
2023-01-31T21:09:51.356Z,13.05
2023-01-31T21:12:23.458Z,13.82
2023-01-31T21:14:55.384Z,12.95
2023-01-31T21:17:39.159Z,13.40
2023-01-31T21:20:12.650Z,13.25
2023-01-31T21:22:44.638Z,12.50
2023-01-31T21:25:16.625Z,12.15
2023-01-31T21:27:51.069Z,13.77
2023-01-31T21:30:23.139Z,13.07
2023-01-31T21:32:55.409Z,13.18
2023-01-31T21:35:27.534Z,12.35
2023-01-31T21:37:59.463Z,12.02
2023-01-31T21:40:31.483Z,11.90
2023-01-31T21:43:03.438Z,12.35
2023-01-31T21:45:41.555Z,11.77
2023-01-31T21:48:32.395Z,11.98
2023-01-31T21:53:38.273Z,11.68
2023-01-31T21:56:16.236Z,12.00
2023-01-31T21:58:48.711Z,11.77
2023-01-31T22:01:24.496Z,12.98
2023-01-31T22:03:57.202Z,13.65
2023-01-31T22:06:41.025Z,11.45
2023-01-31T22:09:13.791Z,12.20
2023-01-31T22:11:47.782Z,12.27
2023-01-31T22:14:19.922Z,11.10
2023-01-31T22:16:53.217Z,11.35
2023-01-31T22:19:25.216Z,11.32
2023-01-31T22:21:58.881Z,11.23
2023-01-31T22:24:30.816Z,12.00
2023-01-31T22:27:02.754Z,12.23
2023-01-31T22:29:34.719Z,11.93
2023-01-31T22:32:06.697Z,11.57
2023-01-31T22:34:38.581Z,11.43
2023-01-31T22:37:10.532Z,11.35
2023-01-31T22:39:42.482Z,13.20
2023-01-31T22:42:14.413Z,11.27
2023-01-31T22:44:46.385Z,10.45
2023-01-31T22:47:18.337Z,11.68
2023-01-31T22:49:50.253Z,11.23
2023-01-31T22:52:22.211Z,12.60
2023-01-31T22:54:54.184Z,11.25
2023-01-31T22:57:27.924Z,12.13
2023-01-31T22:59:59.893Z,12.52
2023-01-31T23:02:32.069Z,13.85
2023-01-31T23:05:04.225Z,17.50
2023-01-31T23:07:36.168Z,16.60
2023-01-31T23:10:08.569Z,13.48
2023-01-31T23:12:42.996Z,12.52
2023-01-31T23:15:15.404Z,11.30
2023-01-31T23:17:47.575Z,10.80
2023-01-31T23:20:21.177Z,12.27
2023-01-31T23:22:55.293Z,12.45
2023-01-31T23:25:32.490Z,13.05
2023-01-31T23:28:04.693Z,12.93
2023-01-31T23:30:36.769Z,13.98
2023-01-31T23:33:08.790Z,12.63
2023-01-31T23:35:40.991Z,12.23
2023-01-31T23:38:12.908Z,13.50
2023-01-31T23:40:49.992Z,13.70
2023-01-31T23:43:22.712Z,14.93
2023-01-31T23:45:54.684Z,13.82
2023-01-31T23:48:26.657Z,14.52
2023-01-31T23:51:06.178Z,15.82
2023-01-31T23:53:38.176Z,16.73
2023-01-31T23:56:10.115Z,13.40
2023-01-31T23:58:42.113Z,15.27
